Time;durP1;ratioP1;P1;durP2;ratioP2;P2;SDS_P1;SDS_P2;PMS_P1;PMS_P2;Temp;Humidity;BMP_temperature;BMP_pressure;BME280_temperature;BME280_humidity;BME280_pressure;Samples;Min_cycle;Max_cycle;Signal;HPM_P1;HPM_P2
2023/07/15 00:01:36;;;;;;;4.53;2.90;;;;;;;20.27;100.00;100560.06;4851999;29;20061;-79
2023/07/15 00:04:10;;;;;;;4.00;2.60;;;;;;;20.27;100.00;100558.25;4854464;29;20048;-79
2023/07/15 00:06:39;;;;;;;5.68;2.80;;;;;;;20.24;100.00;100547.66;4896677;29;20044;-79
2023/07/15 00:09:07;;;;;;;3.85;3.13;;;;;;;20.24;100.00;100542.31;4880209;29;20052;-79
2023/07/15 00:11:38;;;;;;;3.05;2.78;;;;;;;20.23;100.00;100546.81;4885214;29;20056;-79
2023/07/15 00:14:19;;;;;;;3.30;3.00;;;;;;;20.22;100.00;100537.03;4890015;29;20064;-79
2023/07/15 00:16:46;;;;;;;5.00;2.83;;;;;;;20.20;100.00;100532.69;4892401;29;20053;-79
2023/07/15 00:19:13;;;;;;;3.72;2.78;;;;;;;20.18;100.00;100523.84;4842089;29;26314;-80
2023/07/15 00:21:41;;;;;;;4.07;2.78;;;;;;;20.16;100.00;100520.38;4866949;29;20052;-80
2023/07/15 00:24:09;;;;;;;4.00;2.92;;;;;;;20.16;100.00;100521.25;4875093;29;20053;-78
2023/07/15 00:26:37;;;;;;;7.82;3.05;;;;;;;20.16;100.00;100515.03;4860796;29;20493;-79
2023/07/15 00:29:06;;;;;;;3.22;2.45;;;;;;;20.15;100.00;100515.94;4873864;29;20060;-79
2023/07/15 00:31:35;;;;;;;5.65;3.00;;;;;;;20.14;100.00;100506.19;4892169;29;20049;-79
2023/07/15 00:34:04;;;;;;;3.15;2.85;;;;;;;20.14;100.00;100492.81;4848906;29;20060;-79
2023/07/15 00:36:33;;;;;;;2.97;2.67;;;;;;;20.12;100.00;100495.56;4874612;29;20045;-79
2023/07/15 00:39:04;;;;;;;3.05;2.72;;;;;;;20.09;100.00;100495.69;4891659;29;20065;-79
2023/07/15 00:41:34;;;;;;;6.72;3.78;;;;;;;20.08;100.00;100488.59;4874985;29;20045;-79
2023/07/15 00:44:05;;;;;;;3.55;3.00;;;;;;;20.05;100.00;100488.72;4872324;29;20064;-79
2023/07/15 00:47:00;;;;;;;4.88;3.00;;;;;;;20.01;100.00;100477.28;4877162;29;20154;-79
2023/07/15 00:49:31;;;;;;;4.32;3.10;;;;;;;19.98;100.00;100466.72;4892393;29;20053;-79
2023/07/15 00:52:10;;;;;;;;;;;;;;;19.94;100.00;100470.44;4837100;29;20055;-79
2023/07/15 00:54:41;;;;;;;4.05;3.22;;;;;;;19.89;100.00;100460.91;4891882;29;19923;-79
2023/07/15 00:57:09;;;;;;;;;;;;;;;19.86;100.00;100456.53;4891365;29;20037;-79
2023/07/15 00:59:39;;;;;;;3.13;2.55;;;;;;;19.84;100.00;100451.25;4880304;29;20299;-80
2023/07/15 01:02:09;;;;;;;4.32;3.05;;;;;;;19.80;100.00;100446.97;4870301;29;20049;-80
2023/07/15 01:04:37;;;;;;;6.60;4.03;;;;;;;19.77;100.00;100443.53;4891495;29;20059;-79
2023/07/15 01:07:05;;;;;;;5.88;2.78;;;;;;;19.74;100.00;100435.66;4842704;29;20736;-79
2023/07/15 01:09:35;;;;;;;4.78;3.08;;;;;;;19.71;100.00;100441.97;4858645;29;20413;-79
2023/07/15 01:12:04;;;;;;;5.68;2.90;;;;;;;19.65;100.00;100437.72;4887882;29;20048;-79
2023/07/15 01:14:32;;;;;;;6.05;2.80;;;;;;;19.61;100.00;100433.44;4891925;29;20080;-79
2023/07/15 01:17:02;;;;;;;5.23;2.87;;;;;;;19.59;100.00;100429.13;4859306;29;20053;-78
2023/07/15 01:19:30;;;;;;;4.05;2.90;;;;;;;19.56;100.00;100421.22;4876651;29;20309;-78
2023/07/15 01:21:58;;;;;;;4.38;3.05;;;;;;;19.54;100.00;100421.25;4849670;29;20045;-79
2023/07/15 01:24:26;;;;;;;3.80;2.95;;;;;;;19.53;100.00;100410.63;4891071;29;20052;-79
2023/07/15 01:26:56;;;;;;;5.35;2.90;;;;;;;19.51;100.00;100407.16;4856433;29;20524;-79
2023/07/15 01:29:25;;;;;;;5.35;3.85;;;;;;;19.51;100.00;100415.16;4891706;29;20056;-79
2023/07/15 01:31:52;;;;;;;3.63;2.90;;;;;;;19.50;100.00;100416.97;4871651;29;20049;-79
2023/07/15 01:34:20;;;;;;;3.75;3.00;;;;;;;19.48;100.00;100402.81;4871615;29;20052;-79
2023/07/15 01:36:49;;;;;;;3.92;2.92;;;;;;;19.47;100.00;100412.66;4878147;29;20048;-79
2023/07/15 01:39:17;;;;;;;3.95;2.35;;;;;;;19.50;100.00;100410.78;4870060;29;20057;-78
2023/07/15 01:41:44;;;;;;;4.80;3.17;;;;;;;19.50;100.00;100416.13;4893845;29;20052;-79
2023/07/15 01:44:12;;;;;;;5.43;2.70;;;;;;;19.51;100.00;100415.16;4873623;29;20064;-80
2023/07/15 01:46:40;;;;;;;3.45;2.65;;;;;;;19.51;100.00;100407.16;4891430;29;20052;-80
2023/07/15 01:49:08;;;;;;;9.88;3.05;;;;;;;19.51;100.00;100401.81;4872524;29;20053;-79
2023/07/15 01:51:36;;;;;;;3.95;3.10;;;;;;;19.52;100.00;100406.25;4890983;29;20062;-79
2023/07/15 01:54:04;;;;;;;5.75;2.90;;;;;;;19.50;100.00;100389.41;4844938;29;20063;-79
2023/07/15 01:56:32;;;;;;;4.25;2.60;;;;;;;19.50;100.00;100397.41;4874013;29;20055;-80
2023/07/15 01:58:59;;;;;;;3.25;2.85;;;;;;;19.50;100.00;100400.94;4870334;29;20397;-79
2023/07/15 02:01:27;;;;;;;3.75;2.80;;;;;;;19.50;100.00;100392.06;4856380;29;20412;-79
2023/07/15 02:03:54;;;;;;;3.60;2.67;;;;;;;19.48;100.00;100387.66;4888597;29;20058;-79
2023/07/15 02:06:23;;;;;;;3.30;2.70;;;;;;;19.48;100.00;100382.31;4874730;29;20089;-80
2023/07/15 02:08:51;;;;;;;3.97;2.55;;;;;;;19.48;100.00;100384.13;4851253;29;20060;-80
2023/07/15 02:11:20;;;;;;;4.07;2.85;;;;;;;19.47;100.00;100380.59;4859514;29;20505;-79
2023/07/15 02:13:47;;;;;;;4.82;3.60;;;;;;;19.48;100.00;100376.97;4862006;29;20547;-79
2023/07/15 02:16:15;;;;;;;3.75;2.63;;;;;;;19.47;100.00;100372.56;4876546;29;20056;-79
2023/07/15 02:18:42;;;;;;;7.20;3.00;;;;;;;19.47;100.00;100363.69;4878563;29;20049;-79
2023/07/15 02:21:10;;;;;;;3.22;2.58;;;;;;;19.45;100.00;100355.72;4894236;29;20060;-79
2023/07/15 02:23:37;;;;;;;3.97;2.90;;;;;;;19.45;100.00;100361.06;4880331;29;20131;-79
2023/07/15 02:26:04;;;;;;;3.47;3.15;;;;;;;19.45;100.00;100355.72;4839335;29;20088;-79
2023/07/15 02:28:32;;;;;;;3.20;2.88;;;;;;;19.44;100.00;100345.97;4897984;29;20052;-80
2023/07/15 02:31:02;;;;;;;6.53;2.70;;;;;;;19.45;100.00;100354.84;4877148;29;20068;-79
2023/07/15 02:33:29;;;;;;;4.05;2.72;;;;;;;19.46;100.00;100352.09;4897280;29;20333;-79
2023/07/15 02:35:57;;;;;;;4.53;2.25;;;;;;;19.45;100.00;100350.38;4879628;29;20064;-80
2023/07/15 02:38:24;;;;;;;4.75;3.05;;;;;;;19.45;100.00;100344.16;4881949;29;20059;-79
2023/07/15 02:40:53;;;;;;;7.40;2.67;;;;;;;19.44;100.00;100347.78;4844230;29;20432;-79
2023/07/15 02:43:21;;;;;;;9.10;3.25;;;;;;;19.43;100.00;100338.91;4877530;29;20044;-80
2023/07/15 02:45:51;;;;;;;4.82;3.05;;;;;;;19.41;100.00;100353.22;4878805;29;20057;-79
2023/07/15 02:48:21;;;;;;;6.07;2.55;;;;;;;19.39;100.00;100345.28;4868903;29;20049;-80
2023/07/15 02:50:53;;;;;;;4.32;2.45;;;;;;;19.37;100.00;100344.47;4863984;29;20045;-80
2023/07/15 02:53:21;;;;;;;4.15;2.63;;;;;;;19.32;100.00;100341.13;4895903;29;20709;-79
2023/07/15 02:55:51;;;;;;;7.45;2.35;;;;;;;19.31;100.00;100335.84;4855338;29;20056;-79
2023/07/15 02:58:18;;;;;;;5.55;2.78;;;;;;;19.27;100.00;100332.44;4896420;29;20555;-79
2023/07/15 03:00:51;;;;;;;4.90;2.38;;;;;;;19.23;100.00;100322.81;4896435;29;20053;-79
2023/07/15 03:03:20;;;;;;;6.25;2.83;;;;;;;19.20;100.00;100318.44;4898327;29;20707;-78
2023/07/15 03:05:49;;;;;;;2.70;2.08;;;;;;;19.17;100.00;100318.59;4878320;29;20049;-79
2023/07/15 03:08:17;;;;;;;8.48;5.30;;;;;;;19.15;100.00;100311.56;4879255;29;20040;-80
2023/07/15 03:10:45;;;;;;;4.03;3.20;;;;;;;19.14;100.00;100315.19;4893378;29;20048;-80
2023/07/15 03:13:13;;;;;;;7.90;3.53;;;;;;;19.12;100.00;100320.56;4830111;29;20493;-81
2023/07/15 03:15:42;;;;;;;4.35;3.05;;;;;;;19.09;100.00;100310.91;4867929;29;20052;-79
2023/07/15 03:18:10;;;;;;;4.10;2.72;;;;;;;19.09;100.00;100324.25;4895652;29;20065;-80
2023/07/15 03:20:37;;;;;;;5.90;2.50;;;;;;;19.11;100.00;100325.97;4883563;29;20068;-80
2023/07/15 03:23:05;;;;;;;3.22;2.15;;;;;;;19.12;100.00;100327.72;4879101;29;20059;-80
2023/07/15 03:25:33;;;;;;;4.10;2.03;;;;;;;19.11;100.00;100320.63;4895678;29;20056;-80
2023/07/15 03:28:00;;;;;;;4.53;2.30;;;;;;;19.11;100.00;100331.31;4834439;29;20065;-80
2023/07/15 03:30:28;;;;;;;4.35;2.40;;;;;;;19.11;100.00;100323.31;4877275;29;20044;-79
2023/07/15 03:32:56;;;;;;;3.38;2.53;;;;;;;19.08;100.00;100326.97;4892337;29;20429;-80
2023/07/15 03:35:25;;;;;;;4.25;2.50;;;;;;;19.07;100.00;100330.56;4894806;29;20049;-80
2023/07/15 03:37:52;;;;;;;3.47;2.38;;;;;;;19.04;100.00;100334.25;4875878;29;20049;-81
2023/07/15 03:40:21;;;;;;;3.42;2.70;;;;;;;19.05;100.00;100335.09;4858782;29;20065;-80
2023/07/15 03:42:49;;;;;;;4.80;2.53;;;;;;;19.05;100.00;100335.09;4819531;29;20602;-80
2023/07/15 03:45:16;;;;;;;3.63;2.30;;;;;;;19.06;100.00;100331.50;4886086;29;20126;-80
2023/07/15 03:47:44;;;;;;;3.15;2.53;;;;;;;19.05;100.00;100336.00;4892529;29;20432;-80
2023/07/15 03:50:12;;;;;;;2.60;2.10;;;;;;;19.05;100.00;100333.31;4873229;29;20858;-79
2023/07/15 03:52:39;;;;;;;3.65;2.28;;;;;;;19.07;100.00;100339.47;4877403;29;20496;-80
2023/07/15 03:55:07;;;;;;;5.30;2.50;;;;;;;19.08;100.00;100332.31;4891036;29;20057;-79
2023/07/15 03:57:35;;;;;;;3.95;2.80;;;;;;;19.09;100.00;100337.59;4876923;29;20061;-79
2023/07/15 04:00:07;;;;;;;2.92;2.20;;;;;;;19.13;100.00;100348.13;4848198;29;20515;-81
2023/07/15 04:02:45;;;;;;;4.38;2.42;;;;;;;19.18;100.00;100348.84;4867108;29;20452;-81
2023/07/15 04:05:12;;;;;;;6.57;2.40;;;;;;;19.21;100.00;100348.72;4858212;29;20075;-80
2023/07/15 04:07:40;;;;;;;6.78;3.63;;;;;;;19.24;100.00;100345.91;4872437;29;20504;-79
2023/07/15 04:10:08;;;;;;;5.03;2.40;;;;;;;19.24;100.00;100352.16;4858649;29;20059;-81
2023/07/15 04:12:35;;;;;;;4.47;2.63;;;;;;;19.27;100.00;100338.63;4891778;29;20067;-79
2023/07/15 04:15:03;;;;;;;4.97;2.35;;;;;;;19.28;100.00;100340.41;4845130;29;20059;-79
2023/07/15 04:17:31;;;;;;;3.42;2.15;;;;;;;19.28;100.00;100348.41;4862111;29;20057;-79
2023/07/15 04:19:58;;;;;;;2.67;2.45;;;;;;;19.31;100.00;100341.19;4891163;29;20045;-79
2023/07/15 04:22:26;;;;;;;2.70;2.38;;;;;;;19.60;100.00;100348.88;4854296;29;20053;-79
2023/07/15 04:24:54;;;;;;;6.43;2.85;;;;;;;20.08;100.00;100346.84;4861711;29;20064;-80
2023/07/15 04:27:21;;;;;;;6.50;2.58;;;;;;;20.13;100.00;100339.50;4877509;29;20508;-80
2023/07/15 04:29:49;;;;;;;5.10;2.28;;;;;;;20.44;100.00;100341.63;4835704;29;20045;-80
2023/07/15 04:32:16;;;;;;;4.40;2.53;;;;;;;21.10;100.00;100335.00;4861455;29;20048;-80
2023/07/15 04:34:49;;;;;;;8.63;2.72;;;;;;;21.67;100.00;100329.53;4891693;29;20063;-80
2023/07/15 04:37:17;;;;;;;5.20;2.67;;;;;;;22.06;100.00;100333.78;4868390;29;20064;-80
2023/07/15 04:39:44;;;;;;;4.00;2.58;;;;;;;22.35;100.00;100336.75;4892247;29;20056;-80
2023/07/15 04:42:12;;;;;;;5.45;2.40;;;;;;;22.83;100.00;100331.44;4873154;29;20067;-80
2023/07/15 04:44:40;;;;;;;2.78;2.20;;;;;;;23.39;99.55;100338.09;4846618;29;20041;-81
2023/07/15 04:47:07;;;;;;;5.68;2.53;;;;;;;23.96;97.46;100331.22;4873384;29;20443;-80
2023/07/15 04:49:35;;;;;;;3.55;2.15;;;;;;;24.49;94.80;100337.78;4860404;29;20055;-80
2023/07/15 04:52:02;;;;;;;4.72;2.30;;;;;;;25.00;92.38;100335.44;4870917;29;20053;-79
2023/07/15 04:54:30;;;;;;;3.10;2.25;;;;;;;25.37;90.28;100337.53;4852937;29;20056;-80
2023/07/15 04:56:57;;;;;;;5.95;2.22;;;;;;;25.80;88.38;100337.34;4870948;29;20454;-80
2023/07/15 04:59:25;;;;;;;7.30;2.10;;;;;;;26.22;85.64;100341.63;4876597;29;20412;-80
2023/07/15 05:01:52;;;;;;;4.70;2.63;;;;;;;26.63;84.44;100343.25;4833672;29;20063;-80
2023/07/15 05:04:21;;;;;;;3.58;2.55;;;;;;;27.04;81.70;100344.75;4860882;29;20496;-80
2023/07/15 05:06:48;;;;;;;4.35;2.30;;;;;;;27.44;79.51;100348.22;4864437;29;20052;-80
2023/07/15 05:09:15;;;;;;;6.32;2.10;;;;;;;27.78;77.25;100347.34;4867283;29;20053;-79
2023/07/15 05:11:43;;;;;;;2.67;1.98;;;;;;;28.11;73.99;100348.47;4844347;29;20057;-80
2023/07/15 05:14:10;;;;;;;4.35;1.92;;;;;;;28.34;72.30;100349.34;4890290;29;20044;-79
2023/07/15 05:16:43;;;;;;;3.35;2.22;;;;;;;28.26;71.20;100345.50;4834113;29;20064;-79
2023/07/15 05:19:11;;;;;;;3.40;1.70;;;;;;;28.49;70.33;100349.13;4888134;29;20051;-79
2023/07/15 05:21:38;;;;;;;2.40;1.85;;;;;;;28.75;68.12;100353.34;4877387;29;20061;-79
2023/07/15 05:24:06;;;;;;;2.80;1.98;;;;;;;28.61;66.78;100353.59;4866151;29;20045;-79
2023/07/15 05:26:34;;;;;;;4.40;2.13;;;;;;;28.05;66.04;100356.19;4893707;29;20063;-80
2023/07/15 05:29:02;;;;;;;6.93;1.98;;;;;;;27.47;66.60;100361.50;4859959;29;20049;-79
2023/07/15 05:31:30;;;;;;;2.70;2.03;;;;;;;26.92;67.34;100361.91;4833277;29;20061;-80
2023/07/15 05:33:59;;;;;;;4.90;1.90;;;;;;;26.49;68.72;100369.50;4889266;29;20060;-79
2023/07/15 05:36:26;;;;;;;5.95;1.90;;;;;;;26.17;68.83;100365.38;4872029;29;20424;-80
2023/07/15 05:38:54;;;;;;;3.20;2.03;;;;;;;26.04;69.60;100373.47;4854995;29;20061;-79
2023/07/15 05:41:21;;;;;;;7.90;2.00;;;;;;;26.15;70.76;100374.56;4852385;29;20060;-80
2023/07/15 05:43:48;;;;;;;2.10;1.90;;;;;;;26.55;70.26;100382.56;4874169;29;20051;-79
2023/07/15 05:46:16;;;;;;;4.32;1.73;;;;;;;26.99;70.00;100383.94;4852135;29;23962;-83
2023/07/15 05:48:43;;;;;;;2.67;2.08;;;;;;;27.15;67.66;100387.25;4876329;29;20044;-82
2023/07/15 05:51:15;;;;;;;4.97;1.75;;;;;;;27.34;66.84;100392.19;4875591;29;20086;-82
2023/07/15 05:53:43;;;;;;;3.25;1.90;;;;;;;27.54;66.18;100390.69;4861602;29;20122;-83
2023/07/15 05:56:10;;;;;;;5.93;1.95;;;;;;;27.78;64.82;100387.97;4868629;29;20056;-83
2023/07/15 05:58:38;;;;;;;5.53;2.17;;;;;;;28.18;64.14;100384.03;4877184;29;20064;-82
2023/07/15 06:01:06;;;;;;;2.03;1.63;;;;;;;28.51;64.05;100380.53;4858108;29;20059;-83
2023/07/15 06:03:33;;;;;;;4.07;2.30;;;;;;;28.84;62.58;100386.09;4855004;29;20052;-83
2023/07/15 06:06:02;;;;;;;3.97;2.00;;;;;;;29.10;61.34;100376.69;4859189;29;20052;-83
2023/07/15 06:08:31;;;;;;;6.80;1.83;;;;;;;29.34;60.56;100381.13;4878590;29;20063;-83
2023/07/15 06:10:59;;;;;;;5.15;2.15;;;;;;;29.44;58.56;100382.06;4883892;29;20060;-85
2023/07/15 06:13:27;;;;;;;3.03;1.83;;;;;;;29.39;56.90;100373.44;4863180;29;20049;-83
2023/07/15 06:15:56;;;;;;;8.25;1.80;;;;;;;29.29;56.49;100381.50;4874304;29;20053;-83
2023/07/15 06:18:24;;;;;;;2.67;1.75;;;;;;;29.15;55.90;100382.66;4853925;29;20453;-83
2023/07/15 06:20:51;;;;;;;2.83;1.80;;;;;;;28.80;56.43;100390.91;4890708;29;20044;-83
2023/07/15 06:23:19;;;;;;;2.75;1.95;;;;;;;28.38;58.79;100383.34;4872968;29;20067;-83
2023/07/15 06:25:46;;;;;;;4.68;2.20;;;;;;;28.03;59.43;100393.38;4869801;29;20060;-83
2023/07/15 06:28:13;;;;;;;2.20;1.70;;;;;;;27.69;60.85;100390.50;4874923;29;20063;-82
2023/07/15 06:30:41;;;;;;;3.05;1.90;;;;;;;27.39;64.03;100392.72;4874653;29;20053;-83
2023/07/15 06:33:09;;;;;;;2.80;1.80;;;;;;;27.12;65.58;100397.41;4850451;29;20071;-83
2023/07/15 06:35:37;;;;;;;2.78;2.00;;;;;;;26.92;68.46;100399.75;4893990;29;20049;-83
2023/07/15 06:38:04;;;;;;;3.40;1.80;;;;;;;26.74;69.56;100399.22;4888812;29;20056;-82
2023/07/15 06:40:31;;;;;;;3.85;2.10;;;;;;;26.61;70.61;100404.63;4875703;29;20048;-83
2023/07/15 06:42:59;;;;;;;2.58;1.80;;;;;;;26.49;72.07;100404.63;4881954;29;20057;-83
2023/07/15 06:45:33;;;;;;;4.38;1.73;;;;;;;26.37;74.24;100392.81;4876253;29;20071;-83
2023/07/15 06:48:01;;;;;;;6.43;1.95;;;;;;;26.28;75.51;100391.66;4889432;29;20060;-82
2023/07/15 06:50:28;;;;;;;1.98;1.58;;;;;;;26.10;75.25;100384.81;4854776;29;20510;-82
2023/07/15 06:52:56;;;;;;;3.22;2.03;;;;;;;25.90;76.96;100384.34;4890506;29;20052;-82
2023/07/15 06:55:23;;;;;;;3.63;2.00;;;;;;;25.72;79.48;100393.69;4891010;29;20056;-82
2023/07/15 06:57:50;;;;;;;2.22;1.63;;;;;;;25.61;81.13;100381.75;4883427;29;20071;-83
2023/07/15 07:00:18;;;;;;;3.30;2.10;;;;;;;25.55;82.53;100384.00;4859397;29;20064;-82
2023/07/15 07:02:45;;;;;;;1.65;1.40;;;;;;;25.46;82.78;100382.78;4864986;29;20049;-82
2023/07/15 07:05:13;;;;;;;3.60;1.70;;;;;;;25.33;84.94;100388.16;4837375;29;20448;-81
2023/07/15 07:07:44;;;;;;;2.53;1.67;;;;;;;25.28;86.00;100385.75;4895718;29;20048;-81
2023/07/15 07:10:11;;;;;;;4.45;1.90;;;;;;;25.18;87.09;100394.47;4882717;29;20060;-81
2023/07/15 07:12:39;;;;;;;5.70;1.75;;;;;;;25.10;88.46;100385.09;4871488;29;20420;-81
2023/07/15 07:15:07;;;;;;;3.17;1.65;;;;;;;25.10;88.00;100400.38;4859936;29;20058;-82
2023/07/15 07:17:34;;;;;;;2.72;1.60;;;;;;;25.06;88.14;100388.94;4894655;29;20052;-81
2023/07/15 07:20:03;;;;;;;3.40;2.00;;;;;;;25.09;89.58;100396.81;4855904;29;20044;-82
2023/07/15 07:22:31;;;;;;;5.60;1.90;;;;;;;25.04;88.07;100401.63;4876359;29;20432;-82
2023/07/15 07:24:59;;;;;;;5.45;2.17;;;;;;;25.08;90.12;100395.09;4891362;29;20786;-83
2023/07/15 07:27:26;;;;;;;5.20;1.80;;;;;;;25.15;90.04;100387.47;4854409;29;20059;-82
2023/07/15 07:29:58;;;;;;;5.00;2.05;;;;;;;25.26;91.40;100382.28;4862631;29;20053;-82
2023/07/15 07:32:26;;;;;;;4.35;1.70;;;;;;;25.39;90.55;100390.44;4860009;29;20049;-82
2023/07/15 07:34:54;;;;;;;5.47;1.70;;;;;;;25.41;90.63;100379.56;4857675;29;20055;-81
2023/07/15 07:37:21;;;;;;;2.00;1.52;;;;;;;25.43;90.99;100381.16;4883751;29;20052;-83
2023/07/15 07:39:51;;;;;;;2.13;1.60;;;;;;;25.41;90.65;100385.81;4866960;29;20060;-86
2023/07/15 07:42:19;;;;;;;3.33;1.60;;;;;;;25.36;92.08;100404.09;4871002;29;20063;-84
2023/07/15 07:44:47;;;;;;;2.53;1.63;;;;;;;25.38;90.94;100399.47;4868386;29;20063;-85
2023/07/15 07:47:14;;;;;;;3.92;1.52;;;;;;;25.35;91.51;100401.50;4870733;29;20041;-84
2023/07/15 07:49:42;;;;;;;1.52;1.42;;;;;;;25.34;92.28;100416.81;4879295;29;20052;-84
2023/07/15 07:52:09;;;;;;;5.00;1.80;;;;;;;25.46;92.45;100407.06;4847952;29;20060;-84
2023/07/15 07:54:37;;;;;;;2.50;1.50;;;;;;;25.49;91.91;100406.88;4896658;29;20048;-83
2023/07/15 07:57:05;;;;;;;3.65;1.50;;;;;;;25.58;92.56;100410.78;4867996;29;20060;-84
2023/07/15 07:59:32;;;;;;;6.60;1.92;;;;;;;25.67;91.72;100408.34;4879426;29;20079;-82
2023/07/15 08:02:00;;;;;;;2.70;1.65;;;;;;;25.73;91.06;100416.97;4864088;29;20064;-83
2023/07/15 08:04:27;;;;;;;5.85;1.88;;;;;;;25.75;91.57;100417.78;4882840;29;20071;-83
2023/07/15 08:06:58;;;;;;;2.42;1.70;;;;;;;25.76;91.99;100412.25;4823184;29;20508;-82
2023/07/15 08:09:26;;;;;;;3.95;1.60;;;;;;;25.82;92.48;100410.97;4875787;29;20059;-83
2023/07/15 08:11:53;;;;;;;5.43;1.90;;;;;;;25.85;93.33;100410.75;4897603;29;20677;-83
2023/07/15 08:14:21;;;;;;;2.05;1.50;;;;;;;25.80;92.13;100418.31;4876979;29;20052;-83
2023/07/15 08:16:50;;;;;;;1.58;1.48;;;;;;;25.75;92.64;100426.72;4878219;29;20053;-82
2023/07/15 08:19:18;;;;;;;4.57;1.67;;;;;;;25.72;91.98;100417.97;4894929;29;20063;-85
2023/07/15 08:21:45;;;;;;;1.60;1.50;;;;;;;25.76;94.69;100427.56;4851287;29;20053;-81
2023/07/15 08:24:13;;;;;;;5.45;1.60;;;;;;;25.85;93.56;100427.81;4842510;29;20040;-81
2023/07/15 08:26:40;;;;;;;10.48;2.15;;;;;;;25.86;92.85;100439.50;4892189;29;20052;-81
2023/07/15 08:29:07;;;;;;;1.63;1.50;;;;;;;25.79;91.79;100438.19;4867210;29;20055;-81
2023/07/15 08:31:35;;;;;;;2.92;1.67;;;;;;;25.66;92.18;100422.78;4845536;29;20048;-81
2023/07/15 08:34:05;;;;;;;1.50;1.40;;;;;;;25.58;92.70;100435.06;4862342;29;20064;-83
2023/07/15 08:36:34;;;;;;;2.65;1.48;;;;;;;25.55;93.69;100441.53;4878083;29;20052;-81
2023/07/15 08:39:02;;;;;;;3.33;1.60;;;;;;;25.52;93.07;100441.75;4835761;29;20765;-83
2023/07/15 08:41:29;;;;;;;2.72;1.42;;;;;;;25.53;93.08;100439.91;4891895;29;20044;-83
2023/07/15 08:43:57;;;;;;;2.50;1.83;;;;;;;25.47;93.01;100455.50;4877231;29;20067;-84
2023/07/15 08:46:30;;;;;;;2.35;1.63;;;;;;;25.43;93.74;100448.59;4877598;29;20060;-82
2023/07/15 08:49:00;;;;;;;2.10;1.20;;;;;;;25.43;94.56;100455.84;4872253;29;20060;-83
2023/07/15 08:51:33;;;;;;;3.72;1.70;;;;;;;25.44;95.61;100454.84;4889481;29;20052;-83
2023/07/15 08:54:02;;;;;;;2.90;1.45;;;;;;;25.39;95.20;100465.94;4856125;29;21070;-82
2023/07/15 08:56:32;;;;;;;2.85;1.60;;;;;;;25.27;95.07;100458.63;4868642;29;20053;-83
2023/07/15 08:58:59;;;;;;;2.28;1.58;;;;;;;25.25;96.75;100460.56;4882022;29;20044;-83
2023/07/15 09:01:27;;;;;;;3.08;1.50;;;;;;;25.26;97.28;100448.84;4883875;29;20056;-84
2023/07/15 09:03:54;;;;;;;2.10;1.83;;;;;;;25.36;99.00;100459.88;4887806;29;20063;-83
2023/07/15 09:06:22;;;;;;;1.60;1.30;;;;;;;25.46;98.51;100452.91;4882276;29;20504;-84
2023/07/15 09:08:50;;;;;;;2.47;1.52;;;;;;;25.50;98.22;100462.56;4832556;29;20055;-84
2023/07/15 09:11:18;;;;;;;3.38;1.40;;;;;;;25.54;96.97;100466.78;4868563;29;20049;-82
2023/07/15 09:13:46;;;;;;;2.63;1.95;;;;;;;25.46;97.10;100469.09;4892730;29;20063;-83
2023/07/15 09:16:15;;;;;;;2.45;1.85;;;;;;;25.43;97.93;100463.91;4871878;29;20053;-84
2023/07/15 09:18:43;;;;;;;4.10;1.65;;;;;;;25.34;96.28;100459.13;4886141;29;20060;-84
2023/07/15 09:21:16;;;;;;;2.78;1.45;;;;;;;25.22;97.67;100460.75;4877044;29;20056;-85
2023/07/15 09:23:45;;;;;;;5.38;1.40;;;;;;;25.21;96.88;100467.94;4890638;29;20055;-86
2023/07/15 09:26:13;;;;;;;2.50;1.60;;;;;;;25.26;98.11;100470.41;4852483;29;20059;-86
2023/07/15 09:28:46;;;;;;;3.15;1.45;;;;;;;25.36;98.74;100465.28;4890401;29;20530;-86
2023/07/15 09:31:22;;;;;;;2.72;1.90;;;;;;;25.54;98.68;100465.91;4884392;29;20044;-83
2023/07/15 09:34:00;;;;;;;1.58;1.48;;;;;;;25.61;97.28;100454.59;4878580;29;20056;-82
2023/07/15 09:36:33;;;;;;;2.60;1.70;;;;;;;25.70;97.25;100463.94;4872882;29;20451;-86
2023/07/15 09:39:03;;;;;;;3.30;1.35;;;;;;;25.80;97.47;100461.47;4878562;29;20049;-86
2023/07/15 09:41:30;;;;;;;5.15;1.70;;;;;;;25.87;96.93;100468.19;4853832;29;20504;-86
2023/07/15 09:43:58;;;;;;;3.25;1.65;;;;;;;25.93;97.06;100467.81;4859773;29;20593;-85
2023/07/15 09:46:28;;;;;;;2.28;1.45;;;;;;;26.03;97.69;100466.25;4889203;29;20053;-86
2023/07/15 09:48:57;;;;;;;2.67;1.33;;;;;;;26.21;97.77;100460.56;4875375;29;20527;-85
2023/07/15 09:51:25;;;;;;;3.65;1.30;;;;;;;26.33;97.90;100466.94;4851884;29;23460;-85
2023/07/15 09:53:55;;;;;;;2.40;1.80;;;;;;;26.37;95.72;100473.84;4891898;29;20048;-88
2023/07/15 09:56:25;;;;;;;2.53;1.50;;;;;;;26.42;95.64;100469.88;4864916;29;20041;-87
2023/07/15 09:58:56;;;;;;;2.25;1.92;;;;;;;26.46;95.78;100481.31;4890132;29;20053;-83
2023/07/15 10:01:33;;;;;;;4.22;1.50;;;;;;;26.43;94.56;100487.81;4889560;29;20714;-86
2023/07/15 10:04:15;;;;;;;4.38;1.60;;;;;;;26.31;95.50;100488.66;4883018;29;20052;-86
2023/07/15 10:06:44;;;;;;;2.28;1.70;;;;;;;26.20;95.40;100492.09;4885272;29;20068;-85
2023/07/15 10:09:14;;;;;;;2.53;1.95;;;;;;;26.02;95.58;100496.03;4899204;29;20507;-85
2023/07/15 10:11:41;;;;;;;3.65;1.42;;;;;;;25.87;96.53;100487.94;4870294;29;20049;-85
2023/07/15 10:14:09;;;;;;;4.50;1.67;;;;;;;25.93;97.93;100483.16;4891749;29;20385;-86
2023/07/15 10:16:37;;;;;;;1.67;1.33;;;;;;;26.02;98.63;100482.53;4876944;29;20052;-85
2023/07/15 10:19:05;;;;;;;1.73;1.55;;;;;;;25.98;97.44;100481.88;4892567;29;20063;-87
2023/07/15 10:21:34;;;;;;;3.22;1.60;;;;;;;25.95;98.30;100487.47;4861809;29;20052;-85
2023/07/15 10:24:09;;;;;;;3.55;1.80;;;;;;;25.97;97.80;100482.84;4895330;29;20064;-86
2023/07/15 10:26:46;;;;;;;3.25;1.80;;;;;;;25.94;98.25;100485.75;4864057;29;20048;-87
2023/07/15 10:29:14;;;;;;;4.25;1.83;;;;;;;25.89;99.06;100493.25;4862193;29;20067;-86
2023/07/15 10:31:42;;;;;;;2.75;1.50;;;;;;;25.97;98.29;100490.94;4905137;29;20674;-86
2023/07/15 10:34:09;;;;;;;5.07;1.85;;;;;;;26.18;97.71;100487.75;4871201;29;20424;-87
2023/07/15 10:36:44;;;;;;;4.10;1.92;;;;;;;26.37;97.33;100482.84;4884987;29;20049;-86
2023/07/15 10:39:17;;;;;;;3.88;2.20;;;;;;;26.46;96.02;100486.72;4895983;29;20048;-86
2023/07/15 10:41:51;;;;;;;2.85;1.95;;;;;;;26.60;94.52;100478.56;4889956;29;20056;-85
2023/07/15 10:44:23;;;;;;;2.22;1.42;;;;;;;26.72;94.81;100474.13;4871546;29;20052;-85
2023/07/15 10:47:03;;;;;;;2.00;1.85;;;;;;;26.75;93.49;100476.63;4909231;29;20060;-86
2023/07/15 10:49:31;;;;;;;;;;;;;;;26.75;91.45;100475.75;4890270;29;20064;-86
2023/07/15 10:51:59;;;;;;;1.92;1.52;;;;;;;26.77;92.38;100477.41;4889513;29;19924;-85
2023/07/15 10:54:29;;;;;;;3.33;1.92;;;;;;;26.83;91.91;100481.50;4892024;29;20543;-86
2023/07/15 10:56:57;;;;;;;3.60;1.37;;;;;;;26.93;92.66;100476.31;4910319;29;20518;-87
2023/07/15 10:59:33;;;;;;;3.70;1.55;;;;;;;27.11;92.10;100483.09;4871460;29;20479;-86
2023/07/15 11:02:01;;;;;;;2.03;1.23;;;;;;;27.20;90.97;100478.84;4886478;29;20088;-86
2023/07/15 11:04:29;;;;;;;2.38;1.45;;;;;;;27.38;92.65;100479.41;4874033;29;20063;-84
2023/07/15 11:07:00;;;;;;;2.80;1.48;;;;;;;27.55;89.37;100481.72;4884584;29;20057;-84
2023/07/15 11:09:28;;;;;;;2.33;1.20;;;;;;;27.54;87.88;100469.19;4895180;29;20071;-85
2023/07/15 11:11:56;;;;;;;2.10;1.52;;;;;;;27.52;86.90;100481.06;4905097;29;20053;-85
2023/07/15 11:14:27;;;;;;;1.40;1.30;;;;;;;27.52;85.80;100471.09;4869800;29;20076;-85
2023/07/15 11:16:58;;;;;;;1.58;1.40;;;;;;;27.54;87.12;100476.41;4882384;29;20055;-85
2023/07/15 11:19:28;;;;;;;1.73;1.20;;;;;;;27.68;87.01;100475.41;4906497;29;20044;-85
2023/07/15 11:21:57;;;;;;;1.33;1.23;;;;;;;27.76;85.06;100465.72;4893725;29;20055;-86
2023/07/15 11:24:27;;;;;;;1.65;1.23;;;;;;;27.75;85.24;100473.94;4878052;29;20072;-86
2023/07/15 11:26:59;;;;;;;1.45;1.20;;;;;;;27.73;85.21;100462.38;4882472;29;20056;-85
2023/07/15 11:29:28;;;;;;;4.93;1.63;;;;;;;27.78;84.32;100458.34;4858742;29;20052;-85